sensor_id;sensor_type;location;lat;lon;timestamp;temperature;humidity
2955;DHT22;1487;51.470;6.938;2023-06-14T00:01:52;18.00;99.90
2955;DHT22;1487;51.470;6.938;2023-06-14T00:04:19;18.00;99.90
2955;DHT22;1487;51.470;6.938;2023-06-14T00:06:47;17.90;99.90
2955;DHT22;1487;51.470;6.938;2023-06-14T00:09:16;17.90;99.90
2955;DHT22;1487;51.470;6.938;2023-06-14T00:11:43;17.90;99.90
2955;DHT22;1487;51.470;6.938;2023-06-14T00:14:10;17.90;99.90
2955;DHT22;1487;51.470;6.938;2023-06-14T00:16:39;17.90;99.90
2955;DHT22;1487;51.470;6.938;2023-06-14T00:19:08;17.90;99.90
2955;DHT22;1487;51.470;6.938;2023-06-14T00:21:36;17.90;99.90
2955;DHT22;1487;51.470;6.938;2023-06-14T00:24:04;17.80;99.90
2955;DHT22;1487;51.470;6.938;2023-06-14T00:26:31;17.80;99.90
2955;DHT22;1487;51.470;6.938;2023-06-14T00:28:57;17.80;99.90
2955;DHT22;1487;51.470;6.938;2023-06-14T00:31:24;17.80;99.90
2955;DHT22;1487;51.470;6.938;2023-06-14T00:33:53;17.70;99.90
2955;DHT22;1487;51.470;6.938;2023-06-14T00:36:19;17.70;99.90
2955;DHT22;1487;51.470;6.938;2023-06-14T00:38:46;17.70;99.90
2955;DHT22;1487;51.470;6.938;2023-06-14T00:41:13;17.70;99.90
2955;DHT22;1487;51.470;6.938;2023-06-14T00:43:40;17.70;99.90
2955;DHT22;1487;51.470;6.938;2023-06-14T00:46:07;17.80;99.90
2955;DHT22;1487;51.470;6.938;2023-06-14T00:48:34;17.80;99.90
2955;DHT22;1487;51.470;6.938;2023-06-14T00:51:04;17.80;99.90
2955;DHT22;1487;51.470;6.938;2023-06-14T00:53:31;17.90;99.90
2955;DHT22;1487;51.470;6.938;2023-06-14T00:56:01;17.90;99.90
2955;DHT22;1487;51.470;6.938;2023-06-14T00:58:28;17.90;99.90
2955;DHT22;1487;51.470;6.938;2023-06-14T01:00:55;17.90;99.90
2955;DHT22;1487;51.470;6.938;2023-06-14T01:03:23;17.90;99.90
2955;DHT22;1487;51.470;6.938;2023-06-14T01:05:56;17.90;99.90
2955;DHT22;1487;51.470;6.938;2023-06-14T01:08:40;17.80;99.90
2955;DHT22;1487;51.470;6.938;2023-06-14T01:11:13;17.80;99.90
2955;DHT22;1487;51.470;6.938;2023-06-14T01:13:45;17.80;99.90
2955;DHT22;1487;51.470;6.938;2023-06-14T01:16:12;17.70;99.90
2955;DHT22;1487;51.470;6.938;2023-06-14T01:18:40;17.80;99.90
2955;DHT22;1487;51.470;6.938;2023-06-14T01:21:20;17.70;99.90
2955;DHT22;1487;51.470;6.938;2023-06-14T01:23:49;17.70;99.90
2955;DHT22;1487;51.470;6.938;2023-06-14T01:26:18;17.60;99.90
2955;DHT22;1487;51.470;6.938;2023-06-14T01:28:46;17.60;99.90
2955;DHT22;1487;51.470;6.938;2023-06-14T01:31:17;17.60;99.90
2955;DHT22;1487;51.470;6.938;2023-06-14T01:33:45;17.50;99.90
2955;DHT22;1487;51.470;6.938;2023-06-14T01:36:13;17.50;99.90
2955;DHT22;1487;51.470;6.938;2023-06-14T01:38:42;17.50;99.90
2955;DHT22;1487;51.470;6.938;2023-06-14T01:41:11;17.40;99.90
2955;DHT22;1487;51.470;6.938;2023-06-14T01:43:40;17.30;99.90
2955;DHT22;1487;51.470;6.938;2023-06-14T01:46:08;17.30;99.90
2955;DHT22;1487;51.470;6.938;2023-06-14T01:48:36;17.20;99.90
2955;DHT22;1487;51.470;6.938;2023-06-14T01:51:03;17.20;99.90
2955;DHT22;1487;51.470;6.938;2023-06-14T01:53:30;17.20;99.90
2955;DHT22;1487;51.470;6.938;2023-06-14T01:55:56;17.10;99.90
2955;DHT22;1487;51.470;6.938;2023-06-14T01:58:25;17.10;99.90
2955;DHT22;1487;51.470;6.938;2023-06-14T02:00:52;17.10;99.90
2955;DHT22;1487;51.470;6.938;2023-06-14T02:03:20;17.00;99.90
2955;DHT22;1487;51.470;6.938;2023-06-14T02:05:48;17.00;99.90
2955;DHT22;1487;51.470;6.938;2023-06-14T02:08:15;17.00;99.90
2955;DHT22;1487;51.470;6.938;2023-06-14T02:10:42;17.00;99.90
2955;DHT22;1487;51.470;6.938;2023-06-14T02:13:09;17.00;99.90
2955;DHT22;1487;51.470;6.938;2023-06-14T02:15:37;17.00;99.90
2955;DHT22;1487;51.470;6.938;2023-06-14T02:18:04;17.00;99.90
2955;DHT22;1487;51.470;6.938;2023-06-14T02:20:31;16.90;99.90
2955;DHT22;1487;51.470;6.938;2023-06-14T02:22:58;16.90;99.90
2955;DHT22;1487;51.470;6.938;2023-06-14T02:25:25;16.90;99.90
2955;DHT22;1487;51.470;6.938;2023-06-14T02:27:53;16.90;99.90
2955;DHT22;1487;51.470;6.938;2023-06-14T02:30:20;16.90;99.90
2955;DHT22;1487;51.470;6.938;2023-06-14T02:32:48;16.90;99.90
2955;DHT22;1487;51.470;6.938;2023-06-14T02:35:16;16.80;99.90
2955;DHT22;1487;51.470;6.938;2023-06-14T02:37:43;16.80;99.90
2955;DHT22;1487;51.470;6.938;2023-06-14T02:40:11;16.70;99.90
2955;DHT22;1487;51.470;6.938;2023-06-14T02:42:38;16.70;99.90
2955;DHT22;1487;51.470;6.938;2023-06-14T02:45:06;16.70;99.90
2955;DHT22;1487;51.470;6.938;2023-06-14T02:47:33;16.60;99.90
2955;DHT22;1487;51.470;6.938;2023-06-14T02:50:01;16.60;99.90
2955;DHT22;1487;51.470;6.938;2023-06-14T02:52:28;16.60;99.90
2955;DHT22;1487;51.470;6.938;2023-06-14T02:54:55;16.60;99.90
2955;DHT22;1487;51.470;6.938;2023-06-14T02:57:22;16.60;99.90
2955;DHT22;1487;51.470;6.938;2023-06-14T02:59:49;16.50;99.90
2955;DHT22;1487;51.470;6.938;2023-06-14T03:02:17;16.50;99.90
2955;DHT22;1487;51.470;6.938;2023-06-14T03:04:44;16.50;99.90
2955;DHT22;1487;51.470;6.938;2023-06-14T03:07:14;16.50;99.90
2955;DHT22;1487;51.470;6.938;2023-06-14T03:09:45;16.50;99.90
2955;DHT22;1487;51.470;6.938;2023-06-14T03:12:12;16.40;99.90
2955;DHT22;1487;51.470;6.938;2023-06-14T03:14:40;16.40;99.90
2955;DHT22;1487;51.470;6.938;2023-06-14T03:17:07;16.40;99.90
2955;DHT22;1487;51.470;6.938;2023-06-14T03:19:35;16.40;99.90
2955;DHT22;1487;51.470;6.938;2023-06-14T03:22:02;16.30;99.90
2955;DHT22;1487;51.470;6.938;2023-06-14T03:24:31;16.30;99.90
2955;DHT22;1487;51.470;6.938;2023-06-14T03:27:02;16.30;99.90
2955;DHT22;1487;51.470;6.938;2023-06-14T03:29:29;16.20;99.90
2955;DHT22;1487;51.470;6.938;2023-06-14T03:32:00;16.20;99.90
2955;DHT22;1487;51.470;6.938;2023-06-14T03:34:27;16.20;99.90
2955;DHT22;1487;51.470;6.938;2023-06-14T03:36:54;16.10;99.90
2955;DHT22;1487;51.470;6.938;2023-06-14T03:39:21;16.10;99.90
2955;DHT22;1487;51.470;6.938;2023-06-14T03:41:50;16.00;99.90
2955;DHT22;1487;51.470;6.938;2023-06-14T03:44:17;16.00;99.90
2955;DHT22;1487;51.470;6.938;2023-06-14T03:46:44;16.00;99.90
2955;DHT22;1487;51.470;6.938;2023-06-14T03:49:11;16.00;99.90
2955;DHT22;1487;51.470;6.938;2023-06-14T03:51:38;16.00;99.90
2955;DHT22;1487;51.470;6.938;2023-06-14T03:54:06;16.10;99.90
2955;DHT22;1487;51.470;6.938;2023-06-14T03:56:33;16.10;99.90
2955;DHT22;1487;51.470;6.938;2023-06-14T03:59:02;16.10;99.90
2955;DHT22;1487;51.470;6.938;2023-06-14T04:01:29;16.10;99.90
2955;DHT22;1487;51.470;6.938;2023-06-14T04:03:56;16.10;99.90
2955;DHT22;1487;51.470;6.938;2023-06-14T04:06:24;16.20;99.90
2955;DHT22;1487;51.470;6.938;2023-06-14T04:08:58;16.20;99.90
2955;DHT22;1487;51.470;6.938;2023-06-14T04:11:29;16.20;99.90
2955;DHT22;1487;51.470;6.938;2023-06-14T04:13:57;16.20;99.90
2955;DHT22;1487;51.470;6.938;2023-06-14T04:16:26;16.30;99.90
2955;DHT22;1487;51.470;6.938;2023-06-14T04:18:54;16.30;99.90
2955;DHT22;1487;51.470;6.938;2023-06-14T04:21:21;16.30;99.90
2955;DHT22;1487;51.470;6.938;2023-06-14T04:23:49;16.30;99.90
2955;DHT22;1487;51.470;6.938;2023-06-14T04:26:18;16.30;99.90
2955;DHT22;1487;51.470;6.938;2023-06-14T04:28:46;16.30;99.90
2955;DHT22;1487;51.470;6.938;2023-06-14T04:31:13;16.30;99.90
2955;DHT22;1487;51.470;6.938;2023-06-14T04:33:43;16.40;99.90
2955;DHT22;1487;51.470;6.938;2023-06-14T04:36:12;16.40;99.90
2955;DHT22;1487;51.470;6.938;2023-06-14T04:38:39;16.40;99.90
2955;DHT22;1487;51.470;6.938;2023-06-14T04:41:06;16.40;99.90
2955;DHT22;1487;51.470;6.938;2023-06-14T04:43:37;16.50;99.90
2955;DHT22;1487;51.470;6.938;2023-06-14T04:46:05;16.50;99.90
2955;DHT22;1487;51.470;6.938;2023-06-14T04:48:35;16.50;99.90
2955;DHT22;1487;51.470;6.938;2023-06-14T04:51:05;16.60;99.90
2955;DHT22;1487;51.470;6.938;2023-06-14T04:53:32;16.60;99.90
2955;DHT22;1487;51.470;6.938;2023-06-14T04:56:00;16.60;99.90
2955;DHT22;1487;51.470;6.938;2023-06-14T04:58:28;16.70;99.90
2955;DHT22;1487;51.470;6.938;2023-06-14T05:00:55;16.70;99.90
2955;DHT22;1487;51.470;6.938;2023-06-14T05:03:24;16.80;99.90
2955;DHT22;1487;51.470;6.938;2023-06-14T05:05:52;16.80;99.90
2955;DHT22;1487;51.470;6.938;2023-06-14T05:08:22;16.80;99.90
2955;DHT22;1487;51.470;6.938;2023-06-14T05:10:50;16.80;99.90
2955;DHT22;1487;51.470;6.938;2023-06-14T05:13:18;16.90;99.90
2955;DHT22;1487;51.470;6.938;2023-06-14T05:15:46;17.00;99.90
2955;DHT22;1487;51.470;6.938;2023-06-14T05:18:12;17.00;99.90
2955;DHT22;1487;51.470;6.938;2023-06-14T05:20:40;17.10;99.90
2955;DHT22;1487;51.470;6.938;2023-06-14T05:23:09;17.10;99.90
2955;DHT22;1487;51.470;6.938;2023-06-14T05:25:42;17.20;99.90
2955;DHT22;1487;51.470;6.938;2023-06-14T05:28:09;17.30;99.90
2955;DHT22;1487;51.470;6.938;2023-06-14T05:30:37;17.30;99.90
2955;DHT22;1487;51.470;6.938;2023-06-14T05:33:04;17.40;99.90
2955;DHT22;1487;51.470;6.938;2023-06-14T05:35:31;17.40;99.90
2955;DHT22;1487;51.470;6.938;2023-06-14T05:37:58;17.50;99.90
2955;DHT22;1487;51.470;6.938;2023-06-14T05:40:25;17.60;99.90
2955;DHT22;1487;51.470;6.938;2023-06-14T05:42:53;17.70;99.90
2955;DHT22;1487;51.470;6.938;2023-06-14T05:45:20;17.80;99.90
2955;DHT22;1487;51.470;6.938;2023-06-14T05:47:47;18.00;99.90
2955;DHT22;1487;51.470;6.938;2023-06-14T05:50:14;18.10;99.90
2955;DHT22;1487;51.470;6.938;2023-06-14T05:52:41;18.20;99.90
2955;DHT22;1487;51.470;6.938;2023-06-14T05:55:08;18.40;99.90
2955;DHT22;1487;51.470;6.938;2023-06-14T05:57:37;18.60;99.90
2955;DHT22;1487;51.470;6.938;2023-06-14T06:00:08;18.70;99.90
2955;DHT22;1487;51.470;6.938;2023-06-14T06:02:39;18.70;99.90
2955;DHT22;1487;51.470;6.938;2023-06-14T06:05:07;18.80;99.90
2955;DHT22;1487;51.470;6.938;2023-06-14T06:07:34;19.00;99.90
2955;DHT22;1487;51.470;6.938;2023-06-14T06:10:00;19.10;99.90
2955;DHT22;1487;51.470;6.938;2023-06-14T06:12:27;19.20;99.90
2955;DHT22;1487;51.470;6.938;2023-06-14T06:14:54;19.40;99.90
2955;DHT22;1487;51.470;6.938;2023-06-14T06:17:23;19.60;99.90
2955;DHT22;1487;51.470;6.938;2023-06-14T06:19:50;19.60;95.70
2955;DHT22;1487;51.470;6.938;2023-06-14T06:22:17;19.70;98.80
2955;DHT22;1487;51.470;6.938;2023-06-14T06:24:44;19.90;98.30
2955;DHT22;1487;51.470;6.938;2023-06-14T06:27:11;20.10;96.30
2955;DHT22;1487;51.470;6.938;2023-06-14T06:29:38;20.10;93.80
2955;DHT22;1487;51.470;6.938;2023-06-14T06:32:06;20.20;95.10
2955;DHT22;1487;51.470;6.938;2023-06-14T06:34:34;20.20;93.60
2955;DHT22;1487;51.470;6.938;2023-06-14T06:37:02;20.40;93.50
2955;DHT22;1487;51.470;6.938;2023-06-14T06:39:29;20.60;91.80
2955;DHT22;1487;51.470;6.938;2023-06-14T06:41:56;20.60;90.60
2955;DHT22;1487;51.470;6.938;2023-06-14T06:44:23;20.70;89.60
2955;DHT22;1487;51.470;6.938;2023-06-14T06:46:50;21.10;87.40
2955;DHT22;1487;51.470;6.938;2023-06-14T06:49:17;21.40;84.90
2955;DHT22;1487;51.470;6.938;2023-06-14T06:51:59;21.70;83.90
2955;DHT22;1487;51.470;6.938;2023-06-14T06:54:26;22.10;81.40
2955;DHT22;1487;51.470;6.938;2023-06-14T06:56:53;22.60;79.60
2955;DHT22;1487;51.470;6.938;2023-06-14T06:59:19;23.30;80.30
2955;DHT22;1487;51.470;6.938;2023-06-14T07:01:46;23.80;73.30
2955;DHT22;1487;51.470;6.938;2023-06-14T07:04:13;23.70;71.30
2955;DHT22;1487;51.470;6.938;2023-06-14T07:06:41;23.40;69.60
2955;DHT22;1487;51.470;6.938;2023-06-14T07:09:09;23.30;70.50
2955;DHT22;1487;51.470;6.938;2023-06-14T07:11:38;23.60;69.20
2955;DHT22;1487;51.470;6.938;2023-06-14T07:14:05;23.20;69.10
2955;DHT22;1487;51.470;6.938;2023-06-14T07:16:32;23.00;68.90
2955;DHT22;1487;51.470;6.938;2023-06-14T07:18:59;23.00;69.20
2955;DHT22;1487;51.470;6.938;2023-06-14T07:21:26;22.90;68.80
2955;DHT22;1487;51.470;6.938;2023-06-14T07:23:53;23.10;69.20
2955;DHT22;1487;51.470;6.938;2023-06-14T07:26:21;23.20;68.40
2955;DHT22;1487;51.470;6.938;2023-06-14T07:28:48;23.40;69.30
2955;DHT22;1487;51.470;6.938;2023-06-14T07:31:16;23.40;67.90
2955;DHT22;1487;51.470;6.938;2023-06-14T07:33:44;23.60;68.00
2955;DHT22;1487;51.470;6.938;2023-06-14T07:36:11;24.00;66.90
2955;DHT22;1487;51.470;6.938;2023-06-14T07:38:38;24.40;67.20
2955;DHT22;1487;51.470;6.938;2023-06-14T07:41:06;24.50;65.30
2955;DHT22;1487;51.470;6.938;2023-06-14T07:43:34;25.00;64.70
2955;DHT22;1487;51.470;6.938;2023-06-14T07:46:01;25.00;64.00
2955;DHT22;1487;51.470;6.938;2023-06-14T07:48:28;25.00;63.60
2955;DHT22;1487;51.470;6.938;2023-06-14T07:50:54;25.50;63.20
2955;DHT22;1487;51.470;6.938;2023-06-14T07:53:21;25.30;61.50
2955;DHT22;1487;51.470;6.938;2023-06-14T07:55:48;25.50;64.40
2955;DHT22;1487;51.470;6.938;2023-06-14T07:58:16;26.70;62.90
2955;DHT22;1487;51.470;6.938;2023-06-14T08:00:44;26.70;59.40
2955;DHT22;1487;51.470;6.938;2023-06-14T08:03:11;27.20;59.30
2955;DHT22;1487;51.470;6.938;2023-06-14T08:05:38;27.70;60.00
2955;DHT22;1487;51.470;6.938;2023-06-14T08:08:05;28.10;58.40
2955;DHT22;1487;51.470;6.938;2023-06-14T08:10:32;28.60;58.10
2955;DHT22;1487;51.470;6.938;2023-06-14T08:12:58;28.90;57.30
2955;DHT22;1487;51.470;6.938;2023-06-14T08:15:25;29.50;56.10
2955;DHT22;1487;51.470;6.938;2023-06-14T08:17:53;30.10;55.20
2955;DHT22;1487;51.470;6.938;2023-06-14T08:20:20;29.50;53.90
2955;DHT22;1487;51.470;6.938;2023-06-14T08:22:47;28.80;54.40
2955;DHT22;1487;51.470;6.938;2023-06-14T08:25:14;28.30;54.90
2955;DHT22;1487;51.470;6.938;2023-06-14T08:27:41;28.00;55.40
2955;DHT22;1487;51.470;6.938;2023-06-14T08:30:09;27.60;55.40
2955;DHT22;1487;51.470;6.938;2023-06-14T08:32:36;28.30;55.90
2955;DHT22;1487;51.470;6.938;2023-06-14T08:35:04;28.70;55.80
2955;DHT22;1487;51.470;6.938;2023-06-14T08:37:32;29.30;54.90
2955;DHT22;1487;51.470;6.938;2023-06-14T08:39:59;29.70;53.40
2955;DHT22;1487;51.470;6.938;2023-06-14T08:42:26;29.30;52.90
2955;DHT22;1487;51.470;6.938;2023-06-14T08:44:53;28.60;53.10
2955;DHT22;1487;51.470;6.938;2023-06-14T08:47:20;27.80;54.00
2955;DHT22;1487;51.470;6.938;2023-06-14T08:49:49;26.90;55.00
2955;DHT22;1487;51.470;6.938;2023-06-14T08:52:19;26.70;55.90
2955;DHT22;1487;51.470;6.938;2023-06-14T08:54:48;26.90;55.90
2955;DHT22;1487;51.470;6.938;2023-06-14T08:57:17;26.90;55.50
2955;DHT22;1487;51.470;6.938;2023-06-14T08:59:47;26.60;56.20
2955;DHT22;1487;51.470;6.938;2023-06-14T09:02:18;27.00;57.70
2955;DHT22;1487;51.470;6.938;2023-06-14T09:04:45;28.10;56.70
2955;DHT22;1487;51.470;6.938;2023-06-14T09:07:12;29.30;55.50
2955;DHT22;1487;51.470;6.938;2023-06-14T09:09:41;29.50;51.90
2955;DHT22;1487;51.470;6.938;2023-06-14T09:12:08;29.30;51.20
2955;DHT22;1487;51.470;6.938;2023-06-14T09:14:38;29.00;51.60
2955;DHT22;1487;51.470;6.938;2023-06-14T09:17:07;29.60;52.10
2955;DHT22;1487;51.470;6.938;2023-06-14T09:19:34;29.40;49.50
2955;DHT22;1487;51.470;6.938;2023-06-14T09:22:03;28.90;50.90
2955;DHT22;1487;51.470;6.938;2023-06-14T09:24:30;28.90;51.60
2955;DHT22;1487;51.470;6.938;2023-06-14T09:26:58;29.00;50.50
2955;DHT22;1487;51.470;6.938;2023-06-14T09:29:25;29.20;50.80
2955;DHT22;1487;51.470;6.938;2023-06-14T09:31:53;30.10;51.50
2955;DHT22;1487;51.470;6.938;2023-06-14T09:34:20;30.30;49.90
2955;DHT22;1487;51.470;6.938;2023-06-14T09:36:49;31.00;49.70
2955;DHT22;1487;51.470;6.938;2023-06-14T09:39:17;30.80;48.80
2955;DHT22;1487;51.470;6.938;2023-06-14T09:41:44;29.90;47.60
2955;DHT22;1487;51.470;6.938;2023-06-14T09:44:12;29.70;51.40
2955;DHT22;1487;51.470;6.938;2023-06-14T09:46:39;30.90;51.90
2955;DHT22;1487;51.470;6.938;2023-06-14T09:49:06;32.00;49.60
2955;DHT22;1487;51.470;6.938;2023-06-14T09:51:36;32.70;48.40
2955;DHT22;1487;51.470;6.938;2023-06-14T09:54:03;33.10;46.50
2955;DHT22;1487;51.470;6.938;2023-06-14T09:56:34;32.40;46.00
2955;DHT22;1487;51.470;6.938;2023-06-14T09:59:04;31.30;46.20
2955;DHT22;1487;51.470;6.938;2023-06-14T10:01:35;30.20;47.90
2955;DHT22;1487;51.470;6.938;2023-06-14T10:04:04;30.80;48.70
2955;DHT22;1487;51.470;6.938;2023-06-14T10:06:35;30.40;46.80
2955;DHT22;1487;51.470;6.938;2023-06-14T10:09:04;29.70;47.40
2955;DHT22;1487;51.470;6.938;2023-06-14T10:11:31;29.60;49.10
2955;DHT22;1487;51.470;6.938;2023-06-14T10:13:58;30.30;50.10
2955;DHT22;1487;51.470;6.938;2023-06-14T10:16:30;30.20;48.10
2955;DHT22;1487;51.470;6.938;2023-06-14T10:19:06;30.60;48.40
2955;DHT22;1487;51.470;6.938;2023-06-14T10:21:41;30.60;48.00
2955;DHT22;1487;51.470;6.938;2023-06-14T10:24:10;31.30;48.00
2955;DHT22;1487;51.470;6.938;2023-06-14T10:26:51;32.00;48.40
2955;DHT22;1487;51.470;6.938;2023-06-14T10:29:18;31.90;45.00
2955;DHT22;1487;51.470;6.938;2023-06-14T10:31:46;31.90;45.10
2955;DHT22;1487;51.470;6.938;2023-06-14T10:34:23;32.20;45.30
2955;DHT22;1487;51.470;6.938;2023-06-14T10:37:01;32.60;45.50
2955;DHT22;1487;51.470;6.938;2023-06-14T10:39:29;31.50;45.40
2955;DHT22;1487;51.470;6.938;2023-06-14T10:41:57;31.70;45.40
2955;DHT22;1487;51.470;6.938;2023-06-14T10:44:40;31.30;45.60
2955;DHT22;1487;51.470;6.938;2023-06-14T10:47:09;30.40;45.80
2955;DHT22;1487;51.470;6.938;2023-06-14T10:49:39;30.00;47.70
2955;DHT22;1487;51.470;6.938;2023-06-14T10:52:08;30.20;47.60
2955;DHT22;1487;51.470;6.938;2023-06-14T10:54:37;30.30;47.00
2955;DHT22;1487;51.470;6.938;2023-06-14T10:57:06;31.10;46.50
2955;DHT22;1487;51.470;6.938;2023-06-14T10:59:33;30.90;46.70
2955;DHT22;1487;51.470;6.938;2023-06-14T11:02:39;31.10;46.10
2955;DHT22;1487;51.470;6.938;2023-06-14T11:05:14;30.40;46.80
2955;DHT22;1487;51.470;6.938;2023-06-14T11:07:48;30.10;47.50
2955;DHT22;1487;51.470;6.938;2023-06-14T11:10:26;30.40;47.70
2955;DHT22;1487;51.470;6.938;2023-06-14T11:12:56;30.10;47.30
2955;DHT22;1487;51.470;6.938;2023-06-14T11:15:28;29.50;48.30
2955;DHT22;1487;51.470;6.938;2023-06-14T11:17:56;29.60;48.80
2955;DHT22;1487;51.470;6.938;2023-06-14T11:20:27;30.00;48.70
2955;DHT22;1487;51.470;6.938;2023-06-14T11:22:54;30.60;48.20
2955;DHT22;1487;51.470;6.938;2023-06-14T11:25:21;30.40;47.50
2955;DHT22;1487;51.470;6.938;2023-06-14T11:27:49;30.30;48.10
2955;DHT22;1487;51.470;6.938;2023-06-14T11:30:16;30.20;48.70
2955;DHT22;1487;51.470;6.938;2023-06-14T11:32:46;30.70;49.60
2955;DHT22;1487;51.470;6.938;2023-06-14T11:35:13;31.90;48.40
2955;DHT22;1487;51.470;6.938;2023-06-14T11:37:41;32.30;46.60
2955;DHT22;1487;51.470;6.938;2023-06-14T11:40:11;31.90;46.50
2955;DHT22;1487;51.470;6.938;2023-06-14T11:42:39;31.20;46.40
2955;DHT22;1487;51.470;6.938;2023-06-14T11:45:08;30.60;47.90
2955;DHT22;1487;51.470;6.938;2023-06-14T11:47:36;30.00;48.10
2955;DHT22;1487;51.470;6.938;2023-06-14T11:50:05;29.60;49.40
2955;DHT22;1487;51.470;6.938;2023-06-14T11:52:32;29.10;49.00
2955;DHT22;1487;51.470;6.938;2023-06-14T11:55:01;28.70;49.30
2955;DHT22;1487;51.470;6.938;2023-06-14T11:57:30;28.90;49.70
2955;DHT22;1487;51.470;6.938;2023-06-14T11:59:57;29.40;50.10
2955;DHT22;1487;51.470;6.938;2023-06-14T12:02:24;29.80;49.10
2955;DHT22;1487;51.470;6.938;2023-06-14T12:04:53;30.30;51.00
2955;DHT22;1487;51.470;6.938;2023-06-14T12:07:22;31.40;49.80
2955;DHT22;1487;51.470;6.938;2023-06-14T12:10:07;31.40;47.80
2955;DHT22;1487;51.470;6.938;2023-06-14T12:12:36;31.20;48.00
2955;DHT22;1487;51.470;6.938;2023-06-14T12:15:04;30.90;48.30
2955;DHT22;1487;51.470;6.938;2023-06-14T12:17:32;31.10;49.60
2955;DHT22;1487;51.470;6.938;2023-06-14T12:20:05;31.90;49.90
2955;DHT22;1487;51.470;6.938;2023-06-14T12:22:36;31.80;47.20
2955;DHT22;1487;51.470;6.938;2023-06-14T12:25:05;31.70;48.00
2955;DHT22;1487;51.470;6.938;2023-06-14T12:27:34;31.60;47.40
2955;DHT22;1487;51.470;6.938;2023-06-14T12:30:03;31.30;48.20
2955;DHT22;1487;51.470;6.938;2023-06-14T12:32:30;31.90;48.50
2955;DHT22;1487;51.470;6.938;2023-06-14T12:34:57;32.10;47.10
2955;DHT22;1487;51.470;6.938;2023-06-14T12:37:24;31.60;47.70
2955;DHT22;1487;51.470;6.938;2023-06-14T12:39:51;31.80;48.40
2955;DHT22;1487;51.470;6.938;2023-06-14T12:42:19;32.40;48.00
2955;DHT22;1487;51.470;6.938;2023-06-14T12:44:46;32.70;46.60
2955;DHT22;1487;51.470;6.938;2023-06-14T12:47:13;32.10;47.20
2955;DHT22;1487;51.470;6.938;2023-06-14T12:49:40;32.10;48.00
2955;DHT22;1487;51.470;6.938;2023-06-14T12:52:08;32.20;48.20
2955;DHT22;1487;51.470;6.938;2023-06-14T12:54:35;33.00;48.20
2955;DHT22;1487;51.470;6.938;2023-06-14T12:57:02;33.10;47.00
2955;DHT22;1487;51.470;6.938;2023-06-14T12:59:31;33.00;47.40
2955;DHT22;1487;51.470;6.938;2023-06-14T13:02:09;32.80;48.20
2955;DHT22;1487;51.470;6.938;2023-06-14T13:04:37;32.80;46.50
2955;DHT22;1487;51.470;6.938;2023-06-14T13:07:04;32.40;46.70
2955;DHT22;1487;51.470;6.938;2023-06-14T13:09:31;32.00;46.70
2955;DHT22;1487;51.470;6.938;2023-06-14T13:11:58;31.90;47.00
2955;DHT22;1487;51.470;6.938;2023-06-14T13:14:25;32.20;48.40
2955;DHT22;1487;51.470;6.938;2023-06-14T13:16:53;31.90;47.00
2955;DHT22;1487;51.470;6.938;2023-06-14T13:19:20;31.40;48.20
2955;DHT22;1487;51.470;6.938;2023-06-14T13:21:48;31.20;47.60
2955;DHT22;1487;51.470;6.938;2023-06-14T13:24:15;31.30;49.00
2955;DHT22;1487;51.470;6.938;2023-06-14T13:26:43;31.90;48.60
2955;DHT22;1487;51.470;6.938;2023-06-14T13:29:09;32.40;47.90
2955;DHT22;1487;51.470;6.938;2023-06-14T13:31:36;31.80;46.90
2955;DHT22;1487;51.470;6.938;2023-06-14T13:34:06;31.20;47.40
2955;DHT22;1487;51.470;6.938;2023-06-14T13:36:33;31.10;48.50
2955;DHT22;1487;51.470;6.938;2023-06-14T13:39:00;31.40;48.60
2955;DHT22;1487;51.470;6.938;2023-06-14T13:41:28;32.10;49.00
2955;DHT22;1487;51.470;6.938;2023-06-14T13:43:57;32.60;47.90
2955;DHT22;1487;51.470;6.938;2023-06-14T13:46:25;33.10;47.20
2955;DHT22;1487;51.470;6.938;2023-06-14T13:48:52;33.30;45.70
2955;DHT22;1487;51.470;6.938;2023-06-14T13:51:20;33.40;47.60
2955;DHT22;1487;51.470;6.938;2023-06-14T13:53:48;33.50;45.80
2955;DHT22;1487;51.470;6.938;2023-06-14T13:56:16;33.80;46.30
2955;DHT22;1487;51.470;6.938;2023-06-14T13:58:43;33.70;44.70
2955;DHT22;1487;51.470;6.938;2023-06-14T14:01:11;32.80;45.20
2955;DHT22;1487;51.470;6.938;2023-06-14T14:03:38;32.40;45.70
2955;DHT22;1487;51.470;6.938;2023-06-14T14:06:05;32.10;46.10
2955;DHT22;1487;51.470;6.938;2023-06-14T14:08:35;32.40;47.10
2955;DHT22;1487;51.470;6.938;2023-06-14T14:11:01;32.60;47.00
2955;DHT22;1487;51.470;6.938;2023-06-14T14:13:28;32.60;47.70
2955;DHT22;1487;51.470;6.938;2023-06-14T14:15:55;32.80;46.80
2955;DHT22;1487;51.470;6.938;2023-06-14T14:18:22;33.20;47.00
2955;DHT22;1487;51.470;6.938;2023-06-14T14:20:49;33.40;46.20
2955;DHT22;1487;51.470;6.938;2023-06-14T14:23:16;33.10;46.00
2955;DHT22;1487;51.470;6.938;2023-06-14T14:25:53;33.20;45.50
2955;DHT22;1487;51.470;6.938;2023-06-14T14:28:20;33.30;46.70
2955;DHT22;1487;51.470;6.938;2023-06-14T14:30:47;33.10;45.90
2955;DHT22;1487;51.470;6.938;2023-06-14T14:33:15;32.70;46.00
2955;DHT22;1487;51.470;6.938;2023-06-14T14:35:43;32.30;45.90
2955;DHT22;1487;51.470;6.938;2023-06-14T14:38:11;32.50;47.70
2955;DHT22;1487;51.470;6.938;2023-06-14T14:40:38;32.90;46.20
2955;DHT22;1487;51.470;6.938;2023-06-14T14:43:06;32.60;45.80
2955;DHT22;1487;51.470;6.938;2023-06-14T14:45:33;31.80;46.50
2955;DHT22;1487;51.470;6.938;2023-06-14T14:48:00;31.30;48.00
2955;DHT22;1487;51.470;6.938;2023-06-14T14:50:27;31.40;48.00
2955;DHT22;1487;51.470;6.938;2023-06-14T14:52:54;31.50;47.70
2955;DHT22;1487;51.470;6.938;2023-06-14T14:55:21;31.70;48.50
2955;DHT22;1487;51.470;6.938;2023-06-14T14:57:48;31.60;47.00
2955;DHT22;1487;51.470;6.938;2023-06-14T15:00:17;31.30;48.00
2955;DHT22;1487;51.470;6.938;2023-06-14T15:02:44;30.80;47.40
2955;DHT22;1487;51.470;6.938;2023-06-14T15:05:11;30.30;47.70
2955;DHT22;1487;51.470;6.938;2023-06-14T15:07:37;30.40;49.40
2955;DHT22;1487;51.470;6.938;2023-06-14T15:10:06;30.80;48.60
2955;DHT22;1487;51.470;6.938;2023-06-14T15:12:34;30.80;47.80
2955;DHT22;1487;51.470;6.938;2023-06-14T15:15:01;30.40;47.80
2955;DHT22;1487;51.470;6.938;2023-06-14T15:17:30;30.30;49.10
2955;DHT22;1487;51.470;6.938;2023-06-14T15:19:57;30.30;48.80
2955;DHT22;1487;51.470;6.938;2023-06-14T15:22:23;30.30;48.60
2955;DHT22;1487;51.470;6.938;2023-06-14T15:24:50;30.00;48.30
2955;DHT22;1487;51.470;6.938;2023-06-14T15:27:18;30.30;49.30
2955;DHT22;1487;51.470;6.938;2023-06-14T15:29:45;30.30;47.80
2955;DHT22;1487;51.470;6.938;2023-06-14T15:32:12;30.10;48.60
2955;DHT22;1487;51.470;6.938;2023-06-14T15:34:40;30.30;48.80
2955;DHT22;1487;51.470;6.938;2023-06-14T15:37:07;30.60;48.00
2955;DHT22;1487;51.470;6.938;2023-06-14T15:39:34;30.10;47.80
2955;DHT22;1487;51.470;6.938;2023-06-14T15:42:01;30.00;48.40
2955;DHT22;1487;51.470;6.938;2023-06-14T15:44:28;29.90;48.40
2955;DHT22;1487;51.470;6.938;2023-06-14T15:46:54;29.50;48.20
2955;DHT22;1487;51.470;6.938;2023-06-14T15:49:21;29.30;48.60
2955;DHT22;1487;51.470;6.938;2023-06-14T15:51:49;29.40;49.10
2955;DHT22;1487;51.470;6.938;2023-06-14T15:54:16;29.60;49.10
2955;DHT22;1487;51.470;6.938;2023-06-14T15:56:43;29.40;48.30
2955;DHT22;1487;51.470;6.938;2023-06-14T15:59:10;28.90;48.90
2955;DHT22;1487;51.470;6.938;2023-06-14T16:01:37;28.90;49.60
2955;DHT22;1487;51.470;6.938;2023-06-14T16:04:04;28.90;49.10
2955;DHT22;1487;51.470;6.938;2023-06-14T16:06:31;28.80;50.00
2955;DHT22;1487;51.470;6.938;2023-06-14T16:08:59;29.00;50.10